Time;durP1;ratioP1;P1;durP2;ratioP2;P2;SDS_P1;SDS_P2;PMS_P1;PMS_P2;Temp;Humidity;BMP_temperature;BMP_pressure;BME280_temperature;BME280_humidity;BME280_pressure;Samples;Min_cycle;Max_cycle;Signal;HPM_P1;HPM_P2
2022/03/11 00:00:39;;;;;;;;;;;4.30;67.70;;;;;;5063366;28;19924;-66
2022/03/11 00:03:04;;;;;;;;;;;4.30;67.70;;;;;;5063677;28;19909;-66
2022/03/11 00:05:30;;;;;;;;;;;4.30;67.90;;;;;;5063592;28;19916;-66
2022/03/11 00:07:56;;;;;;;;;;;4.20;68.20;;;;;;5063538;28;19908;-67
2022/03/11 00:10:22;;;;;;;;;;;4.20;68.40;;;;;;5063651;28;19931;-66
2022/03/11 00:12:48;;;;;;;;;;;4.10;68.50;;;;;;5063095;28;19959;-66
2022/03/11 00:15:14;;;;;;;;;;;4.00;69.10;;;;;;5063436;28;19920;-67
2022/03/11 00:17:40;;;;;;;;;;;4.00;69.00;;;;;;5063431;28;19915;-66
2022/03/11 00:20:07;;;;;;;;;;;4.00;69.00;;;;;;5063335;28;19936;-66
2022/03/11 00:22:34;;;;;;;;;;;3.90;69.40;;;;;;5063021;28;19930;-65
2022/03/11 00:25:00;;;;;;;;;;;3.80;69.20;;;;;;5063305;28;19928;-66
2022/03/11 00:27:25;;;;;;;;;;;3.90;69.20;;;;;;5063197;28;20302;-66
2022/03/11 00:29:51;;;;;;;;;;;3.90;69.20;;;;;;5062324;28;20104;-66
2022/03/11 00:32:16;;;;;;;;;;;3.90;69.10;;;;;;5045106;28;19975;-67
2022/03/11 00:34:42;;;;;;;;;;;3.80;69.80;;;;;;5063012;28;19908;-66
2022/03/11 00:37:08;;;;;;;;;;;3.80;69.10;;;;;;5062943;28;19978;-66
2022/03/11 00:39:33;;;;;;;;;;;3.80;69.20;;;;;;5062507;28;19917;-66
2022/03/11 00:41:59;;;;;;;;;;;3.70;69.20;;;;;;5044976;28;20207;-65
2022/03/11 00:44:25;;;;;;;;;;;3.70;69.10;;;;;;5062731;28;19936;-66
2022/03/11 00:46:51;;;;;;;;;;;3.70;69.90;;;;;;5062826;28;19915;-66
2022/03/11 00:49:16;;;;;;;;;;;3.60;69.00;;;;;;5062795;28;19916;-67
2022/03/11 00:51:42;;;;;;;;;;;3.60;69.30;;;;;;5062525;28;19924;-66
2022/03/11 00:54:08;;;;;;;;;;;3.60;69.40;;;;;;5062787;28;19917;-66
2022/03/11 00:56:33;;;;;;;;;;;3.60;69.10;;;;;;5062712;28;20015;-66
2022/03/11 00:58:59;;;;;;;;;;;3.50;69.10;;;;;;5062392;28;20199;-66
2022/03/11 01:01:25;;;;;;;;;;;3.50;69.00;;;;;;5032446;28;19920;-66
2022/03/11 01:03:50;;;;;;;;;;;3.40;69.30;;;;;;5056440;28;20199;-66
2022/03/11 01:06:16;;;;;;;;;;;3.40;69.10;;;;;;5048607;28;19912;-66
2022/03/11 01:08:42;;;;;;;;;;;3.40;69.20;;;;;;5051196;28;20020;-66
2022/03/11 01:11:11;;;;;;;;;;;3.30;69.30;;;;;;5056513;28;19919;-66
2022/03/11 01:13:38;;;;;;;;;;;3.20;69.50;;;;;;5053354;28;20007;-66
2022/03/11 01:16:04;;;;;;;;;;;3.30;69.20;;;;;;5052008;28;19925;-66
2022/03/11 01:18:29;;;;;;;;;;;3.30;69.00;;;;;;5050367;28;19979;-66
2022/03/11 01:20:56;;;;;;;;;;;3.30;68.80;;;;;;5061991;28;19916;-66
2022/03/11 01:23:21;;;;;;;;;;;3.30;68.70;;;;;;5062194;28;20200;-67
2022/03/11 01:25:47;;;;;;;;;;;3.20;68.30;;;;;;5062385;28;19915;-67
2022/03/11 01:28:13;;;;;;;;;;;3.20;68.20;;;;;;5061365;28;19923;-67
2022/03/11 01:30:40;;;;;;;;;;;3.20;68.00;;;;;;5061953;28;19946;-66
2022/03/11 01:33:06;;;;;;;;;;;3.10;67.90;;;;;;5062249;28;19917;-66
2022/03/11 01:35:31;;;;;;;;;;;3.10;68.10;;;;;;5062174;28;19919;-67
2022/03/11 01:37:57;;;;;;;;;;;3.00;67.90;;;;;;5062089;28;19951;-67
2022/03/11 01:40:24;;;;;;;;;;;3.00;67.30;;;;;;5062125;28;19932;-66
2022/03/11 01:42:49;;;;;;;;;;;3.00;67.30;;;;;;5061128;28;19923;-65
2022/03/11 01:45:15;;;;;;;;;;;2.90;67.80;;;;;;5060930;28;19917;-66
2022/03/11 01:47:41;;;;;;;;;;;2.80;67.50;;;;;;5060989;28;19917;-66
2022/03/11 01:50:07;;;;;;;;;;;2.70;67.30;;;;;;5060988;28;19909;-66
2022/03/11 01:52:32;;;;;;;;;;;2.70;67.10;;;;;;5062965;28;20001;-66
2022/03/11 01:54:58;;;;;;;;;;;2.70;66.20;;;;;;5065027;28;20007;-66
2022/03/11 01:57:24;;;;;;;;;;;2.80;65.80;;;;;;5080369;28;19924;-67
2022/03/11 01:59:49;;;;;;;;;;;2.70;65.80;;;;;;5051347;28;19916;-66
2022/03/11 02:02:15;;;;;;;;;;;2.60;65.70;;;;;;5063832;28;20207;-67
2022/03/11 02:04:41;;;;;;;;;;;2.60;65.50;;;;;;5064893;28;19909;-66
2022/03/11 02:07:07;;;;;;;;;;;2.60;65.20;;;;;;5064678;28;19984;-67
2022/03/11 02:09:33;;;;;;;;;;;2.60;64.30;;;;;;5064803;28;19923;-67
2022/03/11 02:11:59;;;;;;;;;;;2.60;64.40;;;;;;5064418;28;19936;-66
2022/03/11 02:14:25;;;;;;;;;;;2.50;64.10;;;;;;5064470;28;19908;-67
2022/03/11 02:16:50;;;;;;;;;;;2.50;63.90;;;;;;5064433;28;19913;-66
2022/03/11 02:19:16;;;;;;;;;;;2.50;64.20;;;;;;5064452;28;19915;-66
2022/03/11 02:21:47;;;;;;;;;;;2.50;64.50;;;;;;5063094;28;19908;-66
2022/03/11 02:24:14;;;;;;;;;;;2.50;63.50;;;;;;5064426;28;20088;-66
2022/03/11 02:26:40;;;;;;;;;;;2.40;63.40;;;;;;5063009;28;19916;-66
2022/03/11 02:29:06;;;;;;;;;;;2.30;63.30;;;;;;5063434;28;19975;-66
2022/03/11 02:31:32;;;;;;;;;;;2.30;63.30;;;;;;5063937;28;20120;-66
2022/03/11 02:33:58;;;;;;;;;;;2.30;63.50;;;;;;5046388;28;19916;-66
2022/03/11 02:36:24;;;;;;;;;;;2.30;63.20;;;;;;5064154;28;20207;-66
2022/03/11 02:38:50;;;;;;;;;;;2.30;63.00;;;;;;5064151;28;19931;-66
2022/03/11 02:41:15;;;;;;;;;;;2.30;62.40;;;;;;5063927;28;19939;-66
2022/03/11 02:43:42;;;;;;;;;;;2.30;62.60;;;;;;5063859;28;19912;-66
2022/03/11 02:46:09;;;;;;;;;;;2.20;62.60;;;;;;5046265;28;19908;-65
2022/03/11 02:48:34;;;;;;;;;;;2.20;62.30;;;;;;5064079;28;19955;-66
2022/03/11 02:51:00;;;;;;;;;;;2.20;62.20;;;;;;5063715;28;20100;-66
2022/03/11 02:53:26;;;;;;;;;;;2.10;62.20;;;;;;5063935;28;20226;-66
2022/03/11 02:55:52;;;;;;;;;;;2.00;62.10;;;;;;5046073;28;19925;-66
2022/03/11 02:58:18;;;;;;;;;;;2.00;61.90;;;;;;5063175;28;19932;-66
2022/03/11 03:00:43;;;;;;;;;;;2.00;61.70;;;;;;5063544;28;19908;-66
2022/03/11 03:03:09;;;;;;;;;;;2.00;61.60;;;;;;5063247;28;19909;-66
2022/03/11 03:05:35;;;;;;;;;;;1.90;61.90;;;;;;5063783;28;19924;-66
2022/03/11 03:08:01;;;;;;;;;;;1.90;61.00;;;;;;5063684;28;19940;-67
2022/03/11 03:10:26;;;;;;;;;;;1.90;60.70;;;;;;5063577;28;19925;-67
2022/03/11 03:12:52;;;;;;;;;;;1.90;59.90;;;;;;5063296;28;19953;-67
2022/03/11 03:15:18;;;;;;;;;;;1.90;60.00;;;;;;5063118;28;19913;-67
2022/03/11 03:17:43;;;;;;;;;;;1.80;59.90;;;;;;5063476;28;19909;-66
2022/03/11 03:20:10;;;;;;;;;;;1.70;60.00;;;;;;5063621;28;20148;-66
2022/03/11 03:22:36;;;;;;;;;;;1.70;59.70;;;;;;5063137;28;20128;-66
2022/03/11 03:25:03;;;;;;;;;;;1.60;59.80;;;;;;5063398;28;19947;-67
2022/03/11 03:27:28;;;;;;;;;;;1.60;59.30;;;;;;5063256;28;19984;-67
2022/03/11 03:29:54;;;;;;;;;;;1.60;59.80;;;;;;5062391;28;19915;-66
2022/03/11 03:32:20;;;;;;;;;;;1.50;59.70;;;;;;5062944;28;19917;-66
2022/03/11 03:34:45;;;;;;;;;;;1.50;59.20;;;;;;5063344;28;20155;-66
2022/03/11 03:37:11;;;;;;;;;;;1.50;58.70;;;;;;5062983;28;19909;-67
2022/03/11 03:39:38;;;;;;;;;;;1.50;58.50;;;;;;5063215;28;19916;-68
2022/03/11 03:42:04;;;;;;;;;;;1.40;57.70;;;;;;5045057;28;19909;-67
2022/03/11 03:44:30;;;;;;;;;;;1.40;58.30;;;;;;5062735;28;19931;-68
2022/03/11 03:46:56;;;;;;;;;;;1.40;57.70;;;;;;5062241;28;20231;-67
2022/03/11 03:49:21;;;;;;;;;;;1.40;57.40;;;;;;5062941;28;20088;-67
2022/03/11 03:51:47;;;;;;;;;;;1.40;57.40;;;;;;5062980;28;19936;-67
2022/03/11 03:54:13;;;;;;;;;;;1.30;57.50;;;;;;5062837;28;19947;-67
2022/03/11 03:56:42;;;;;;;;;;;1.30;57.60;;;;;;5062581;28;19913;-68
2022/03/11 03:59:08;;;;;;;;;;;1.20;57.90;;;;;;5044714;28;19909;-68
2022/03/11 04:01:34;;;;;;;;;;;1.10;57.90;;;;;;5062578;28;20353;-67
2022/03/11 04:04:00;;;;;;;;;;;1.10;57.80;;;;;;5062766;28;19909;-67
2022/03/11 04:06:27;;;;;;;;;;;1.10;57.50;;;;;;5062550;28;20125;-68
2022/03/11 04:08:56;;;;;;;;;;;1.10;57.60;;;;;;5062524;28;19916;-67
2022/03/11 04:11:23;;;;;;;;;;;1.00;57.10;;;;;;5062109;28;19920;-67
2022/03/11 04:13:50;;;;;;;;;;;1.10;56.90;;;;;;5061916;28;20107;-67
2022/03/11 04:16:16;;;;;;;;;;;1.10;56.80;;;;;;5061957;28;20115;-67
2022/03/11 04:18:42;;;;;;;;;;;1.10;56.60;;;;;;5062567;28;19909;-66
2022/03/11 04:21:08;;;;;;;;;;;1.10;56.50;;;;;;5062266;28;19915;-67
2022/03/11 04:23:34;;;;;;;;;;;1.00;56.40;;;;;;5062347;28;19955;-67
2022/03/11 04:26:01;;;;;;;;;;;1.00;55.90;;;;;;5062169;28;20153;-67
2022/03/11 04:28:27;;;;;;;;;;;1.00;55.80;;;;;;5061492;28;19970;-67
2022/03/11 04:30:52;;;;;;;;;;;0.90;55.80;;;;;;5062125;28;20219;-67
2022/03/11 04:33:18;;;;;;;;;;;0.90;55.90;;;;;;5062316;28;19972;-67
2022/03/11 04:35:44;;;;;;;;;;;0.90;55.30;;;;;;5061940;28;20169;-67
2022/03/11 04:38:10;;;;;;;;;;;0.80;55.60;;;;;;5061941;28;19928;-67
2022/03/11 04:40:36;;;;;;;;;;;0.80;55.30;;;;;;5061764;28;19909;-67
2022/03/11 04:43:02;;;;;;;;;;;0.80;55.50;;;;;;5061970;28;20260;-67
2022/03/11 04:45:28;;;;;;;;;;;0.80;55.30;;;;;;5061794;28;19909;-67
2022/03/11 04:47:54;;;;;;;;;;;0.80;55.20;;;;;;5061784;28;20088;-67
2022/03/11 04:50:19;;;;;;;;;;;0.70;55.40;;;;;;5061876;28;19975;-67
2022/03/11 04:52:45;;;;;;;;;;;0.60;55.70;;;;;;5061501;28;19921;-67
2022/03/11 04:55:11;;;;;;;;;;;0.60;55.40;;;;;;5061513;28;19932;-67
2022/03/11 04:57:37;;;;;;;;;;;0.50;55.40;;;;;;5061482;28;19909;-68
2022/03/11 05:00:03;;;;;;;;;;;0.50;54.90;;;;;;5061185;28;19908;-67
2022/03/11 05:02:29;;;;;;;;;;;0.40;54.80;;;;;;5061342;28;19984;-67
2022/03/11 05:04:55;;;;;;;;;;;0.40;54.80;;;;;;5061224;28;20123;-67
2022/03/11 05:07:21;;;;;;;;;;;0.40;54.50;;;;;;5061160;28;19912;-67
2022/03/11 05:09:47;;;;;;;;;;;0.40;54.60;;;;;;5061139;28;19960;-68
2022/03/11 05:12:13;;;;;;;;;;;0.40;54.50;;;;;;5043230;28;19912;-68
2022/03/11 05:14:38;;;;;;;;;;;0.40;54.20;;;;;;5060286;28;20018;-68
2022/03/11 05:17:04;;;;;;;;;;;0.30;54.00;;;;;;5060963;28;19994;-68
2022/03/11 05:19:30;;;;;;;;;;;0.30;54.00;;;;;;5059730;28;19955;-68
2022/03/11 05:21:56;;;;;;;;;;;0.30;53.80;;;;;;5060974;28;19917;-68
2022/03/11 05:24:22;;;;;;;;;;;0.30;53.80;;;;;;5060706;28;19936;-68
2022/03/11 05:26:48;;;;;;;;;;;0.30;53.50;;;;;;5060743;28;19935;-67
2022/03/11 05:29:14;;;;;;;;;;;0.30;53.30;;;;;;5060107;28;19928;-67
2022/03/11 05:31:39;;;;;;;;;;;0.30;53.20;;;;;;5060383;28;20089;-67
2022/03/11 05:34:05;;;;;;;;;;;0.30;53.30;;;;;;5060809;28;20128;-67
2022/03/11 05:36:32;;;;;;;;;;;0.20;53.30;;;;;;5060420;28;19917;-69
2022/03/11 05:38:57;;;;;;;;;;;0.20;53.30;;;;;;5060262;28;19919;-67
2022/03/11 05:41:23;;;;;;;;;;;0.20;53.40;;;;;;5060628;28;19909;-67
2022/03/11 05:43:49;;;;;;;;;;;0.10;53.20;;;;;;5026157;28;19944;-68
2022/03/11 05:46:14;;;;;;;;;;;0.10;53.40;;;;;;5060738;28;19915;-68
2022/03/11 05:48:40;;;;;;;;;;;0.10;53.20;;;;;;5059853;28;20093;-68
2022/03/11 05:51:06;;;;;;;;;;;0.10;53.60;;;;;;5060788;28;19909;-69
2022/03/11 05:53:32;;;;;;;;;;;0.10;53.20;;;;;;5042062;28;19941;-68
2022/03/11 05:55:57;;;;;;;;;;;0.10;53.30;;;;;;5060921;28;20150;-68
2022/03/11 05:58:23;;;;;;;;;;;0.10;53.10;;;;;;5060944;28;19909;-68
2022/03/11 06:00:49;;;;;;;;;;;0.00;53.20;;;;;;5060071;28;20257;-68
2022/03/11 06:03:15;;;;;;;;;;;0.00;53.50;;;;;;5060381;28;19916;-68
2022/03/11 06:05:41;;;;;;;;;;;0.00;53.90;;;;;;5060746;28;19912;-68
2022/03/11 06:08:07;;;;;;;;;;;0.00;53.80;;;;;;5060620;28;19998;-67
2022/03/11 06:10:32;;;;;;;;;;;-0.10;53.90;;;;;;5060312;28;20101;-66
2022/03/11 06:12:58;;;;;;;;;;;0.00;54.30;;;;;;5060569;28;19908;-67
2022/03/11 06:15:24;;;;;;;;;;;0.10;53.00;;;;;;5060136;28;19919;-65
2022/03/11 06:17:49;;;;;;;;;;;0.10;52.70;;;;;;5060590;28;20298;-66
2022/03/11 06:20:15;;;;;;;;;;;0.20;52.60;;;;;;5060515;28;19916;-65
2022/03/11 06:22:48;;;;;;;;;;;0.20;52.70;;;;;;5060364;28;19909;-66
2022/03/11 06:25:14;;;;;;;;;;;0.30;51.90;;;;;;5060878;28;19963;-66
2022/03/11 06:27:40;;;;;;;;;;;0.40;51.40;;;;;;5060682;28;19924;-65
2022/03/11 06:30:06;;;;;;;;;;;0.50;51.00;;;;;;5059670;28;19916;-66
2022/03/11 06:32:32;;;;;;;;;;;0.50;50.90;;;;;;5060260;28;19912;-67
2022/03/11 06:34:58;;;;;;;;;;;0.60;50.80;;;;;;5060503;28;19934;-68
2022/03/11 06:37:24;;;;;;;;;;;0.60;50.60;;;;;;5054969;28;19959;-66
2022/03/11 06:39:49;;;;;;;;;;;0.70;50.60;;;;;;5064164;28;19913;-66
2022/03/11 06:42:15;;;;;;;;;;;0.70;49.70;;;;;;5063941;28;19916;-67
2022/03/11 06:44:41;;;;;;;;;;;0.70;50.40;;;;;;5061015;28;19991;-67
2022/03/11 06:47:07;;;;;;;;;;;0.80;49.90;;;;;;5063917;28;19909;-66
2022/03/11 06:49:32;;;;;;;;;;;1.10;49.40;;;;;;5064006;28;19913;-66
2022/03/11 06:51:58;;;;;;;;;;;1.40;47.60;;;;;;5056379;28;19920;-66
2022/03/11 06:54:24;;;;;;;;;;;1.50;47.40;;;;;;5063143;28;19976;-66
2022/03/11 06:56:49;;;;;;;;;;;1.40;47.50;;;;;;5063802;28;19912;-67
2022/03/11 06:59:15;;;;;;;;;;;1.40;47.70;;;;;;5063583;28;20162;-67
2022/03/11 07:01:44;;;;;;;;;;;1.40;46.90;;;;;;5063735;28;19913;-67
2022/03/11 07:04:09;;;;;;;;;;;1.40;47.10;;;;;;5064019;28;20107;-67
2022/03/11 07:06:35;;;;;;;;;;;1.30;47.50;;;;;;5063671;28;19923;-68
2022/03/11 07:09:01;;;;;;;;;;;1.40;46.80;;;;;;5063711;28;19999;-67
2022/03/11 07:11:26;;;;;;;;;;;1.50;47.00;;;;;;5063341;28;19919;-67
2022/03/11 07:13:52;;;;;;;;;;;1.60;47.00;;;;;;5063091;28;20142;-67
2022/03/11 07:16:18;;;;;;;;;;;1.60;46.40;;;;;;5063317;28;19913;-67
2022/03/11 07:18:43;;;;;;;;;;;1.60;46.40;;;;;;5062975;28;19977;-67
2022/03/11 07:21:10;;;;;;;;;;;1.70;45.40;;;;;;5044959;28;19909;-67
2022/03/11 07:23:36;;;;;;;;;;;1.60;45.80;;;;;;5063438;28;19984;-67
2022/03/11 07:26:01;;;;;;;;;;;1.70;45.60;;;;;;5063316;28;19915;-67
2022/03/11 07:28:27;;;;;;;;;;;1.70;45.50;;;;;;5063214;28;20031;-67
2022/03/11 07:30:53;;;;;;;;;;;1.70;44.90;;;;;;5062866;28;19913;-67
2022/03/11 07:33:19;;;;;;;;;;;1.80;44.70;;;;;;5063440;28;19909;-67
2022/03/11 07:35:44;;;;;;;;;;;1.90;44.60;;;;;;5063243;28;19995;-67
2022/03/11 07:38:10;;;;;;;;;;;1.90;44.40;;;;;;5063136;28;19979;-67
2022/03/11 07:40:36;;;;;;;;;;;1.90;44.00;;;;;;5063303;28;19908;-67
2022/03/11 07:43:02;;;;;;;;;;;2.00;44.30;;;;;;5064196;28;19984;-67
2022/03/11 07:45:28;;;;;;;;;;;2.00;44.00;;;;;;5063911;28;19916;-67
2022/03/11 07:47:53;;;;;;;;;;;2.10;44.30;;;;;;5063924;28;19908;-67
2022/03/11 07:50:19;;;;;;;;;;;2.00;43.40;;;;;;5063786;28;19908;-67
2022/03/11 07:52:45;;;;;;;;;;;2.10;43.30;;;;;;5063526;28;20223;-67
2022/03/11 07:55:11;;;;;;;;;;;2.10;43.90;;;;;;5063628;28;19921;-67
2022/03/11 07:57:36;;;;;;;;;;;2.20;43.10;;;;;;5063469;28;19909;-67
2022/03/11 08:00:04;;;;;;;;;;;2.20;43.20;;;;;;5063376;28;20147;-67
2022/03/11 08:02:31;;;;;;;;;;;2.30;43.60;;;;;;5063266;28;20258;-67
2022/03/11 08:04:57;;;;;;;;;;;2.30;43.60;;;;;;5045884;28;20089;-67
2022/03/11 08:07:23;;;;;;;;;;;2.50;43.20;;;;;;5063409;28;19915;-67
2022/03/11 08:09:49;;;;;;;;;;;2.50;43.10;;;;;;5063392;28;19947;-66
2022/03/11 08:12:14;;;;;;;;;;;2.60;43.00;;;;;;5063105;28;19916;-67
2022/03/11 08:14:40;;;;;;;;;;;2.70;42.60;;;;;;5063284;28;20211;-66
2022/03/11 08:17:06;;;;;;;;;;;2.70;42.30;;;;;;5063231;28;20210;-67
2022/03/11 08:19:32;;;;;;;;;;;2.80;41.90;;;;;;5063271;28;19985;-68
2022/03/11 08:21:58;;;;;;;;;;;2.90;41.90;;;;;;5045585;28;19909;-67
2022/03/11 08:24:24;;;;;;;;;;;2.90;41.90;;;;;;5063872;28;19944;-67
2022/03/11 08:26:50;;;;;;;;;;;3.00;41.40;;;;;;5063299;28;19962;-67
2022/03/11 08:29:16;;;;;;;;;;;3.10;41.10;;;;;;5063166;28;19916;-67
2022/03/11 08:31:43;;;;;;;;;;;3.10;41.10;;;;;;5045474;28;20219;-68
2022/03/11 08:34:09;;;;;;;;;;;3.10;41.10;;;;;;5063516;28;19975;-67
2022/03/11 08:36:35;;;;;;;;;;;3.20;41.10;;;;;;5063093;28;19921;-67
2022/03/11 08:39:01;;;;;;;;;;;3.40;40.20;;;;;;5045162;28;19949;-67
2022/03/11 08:41:27;;;;;;;;;;;3.50;40.30;;;;;;5062955;28;19940;-64
2022/03/11 08:43:53;;;;;;;;;;;3.50;40.70;;;;;;5063122;28;19909;-64
2022/03/11 08:46:19;;;;;;;;;;;3.60;40.20;;;;;;5062837;28;20158;-64
2022/03/11 08:48:45;;;;;;;;;;;3.70;40.90;;;;;;5062820;28;19912;-65
2022/03/11 08:51:11;;;;;;;;;;;3.70;39.80;;;;;;5062678;28;19987;-66
2022/03/11 08:53:36;;;;;;;;;;;3.90;39.40;;;;;;5062791;28;19909;-66
2022/03/11 08:56:03;;;;;;;;;;;3.90;39.40;;;;;;5062799;28;19913;-67
2022/03/11 08:58:28;;;;;;;;;;;4.00;39.30;;;;;;5062648;28;20119;-68
2022/03/11 09:00:54;;;;;;;;;;;4.10;39.30;;;;;;5061810;28;19947;-68
2022/03/11 09:03:20;;;;;;;;;;;4.30;39.40;;;;;;5062796;28;20135;-68
2022/03/11 09:05:45;;;;;;;;;;;4.40;39.20;;;;;;5062615;28;19923;-68
2022/03/11 09:08:11;;;;;;;;;;;4.50;38.10;;;;;;5062542;28;20176;-68
2022/03/11 09:10:37;;;;;;;;;;;4.40;38.20;;;;;;5062343;28;19931;-67
2022/03/11 09:13:02;;;;;;;;;;;4.40;37.80;;;;;;5062641;28;19952;-67
2022/03/11 09:15:28;;;;;;;;;;;4.60;38.70;;;;;;5062410;28;20234;-67
2022/03/11 09:17:54;;;;;;;;;;;4.70;37.40;;;;;;5062376;28;19931;-67
2022/03/11 09:20:19;;;;;;;;;;;4.80;37.60;;;;;;5062455;28;20151;-68
2022/03/11 09:22:45;;;;;;;;;;;4.90;37.50;;;;;;5062122;28;19924;-68
2022/03/11 09:25:11;;;;;;;;;;;4.90;37.40;;;;;;5062600;28;19928;-69
2022/03/11 09:27:37;;;;;;;;;;;5.00;36.20;;;;;;5062332;28;19909;-68
2022/03/11 09:30:07;;;;;;;;;;;5.10;36.50;;;;;;5061458;28;19909;-69
2022/03/11 09:32:32;;;;;;;;;;;5.20;36.70;;;;;;5062119;28;19915;-68
2022/03/11 09:34:59;;;;;;;;;;;5.30;36.20;;;;;;5062273;28;20111;-69
2022/03/11 09:37:26;;;;;;;;;;;5.40;35.80;;;;;;5062013;28;19924;-69
2022/03/11 09:39:52;;;;;;;;;;;5.50;35.50;;;;;;5062202;28;19923;-69
2022/03/11 09:42:18;;;;;;;;;;;5.60;36.00;;;;;;5061909;28;19908;-69
2022/03/11 09:44:51;;;;;;;;;;;5.70;35.20;;;;;;5062056;28;20011;-69
2022/03/11 09:47:18;;;;;;;;;;;5.80;35.50;;;;;;5044507;28;19908;-68
2022/03/11 09:49:44;;;;;;;;;;;5.90;35.30;;;;;;5044536;28;20111;-69
2022/03/11 09:52:10;;;;;;;;;;;6.00;35.20;;;;;;5061829;28;19923;-68
2022/03/11 09:54:36;;;;;;;;;;;6.00;35.60;;;;;;5044633;28;20182;-69
2022/03/11 09:57:02;;;;;;;;;;;6.10;35.10;;;;;;5061906;28;19948;-69
2022/03/11 09:59:27;;;;;;;;;;;6.30;34.80;;;;;;5061632;28;19972;-69
2022/03/11 10:01:54;;;;;;;;;;;6.40;36.60;;;;;;5061697;28;19909;-69
2022/03/11 10:04:20;;;;;;;;;;;6.50;33.90;;;;;;5062157;28;19909;-69
2022/03/11 10:06:47;;;;;;;;;;;6.50;34.40;;;;;;5062496;28;19928;-69
2022/03/11 10:09:18;;;;;;;;;;;6.70;33.60;;;;;;5062269;28;20213;-69
2022/03/11 10:11:49;;;;;;;;;;;6.80;34.10;;;;;;5061801;28;19912;-69
2022/03/11 10:14:15;;;;;;;;;;;6.90;34.30;;;;;;5065030;28;19960;-68
2022/03/11 10:16:41;;;;;;;;;;;7.20;33.30;;;;;;5065788;28;19912;-69
2022/03/11 10:19:10;;;;;;;;;;;7.30;32.80;;;;;;5065690;28;20169;-68
2022/03/11 10:21:37;;;;;;;;;;;7.40;32.70;;;;;;5047712;28;20243;-69
2022/03/11 10:24:05;;;;;;;;;;;7.50;32.40;;;;;;5065815;28;19909;-69
2022/03/11 10:26:34;;;;;;;;;;;7.70;31.70;;;;;;5065724;28;19916;-69
2022/03/11 10:29:00;;;;;;;;;;;7.70;31.10;;;;;;5065435;28;19912;-69
2022/03/11 10:31:33;;;;;;;;;;;7.80;31.70;;;;;;5065137;28;19909;-69
2022/03/11 10:34:31;;;;;;;;;;;7.90;30.50;;;;;;5065697;28;19921;-69
2022/03/11 10:36:58;;;;;;;;;;;8.00;30.40;;;;;;5047673;28;19991;-69
2022/03/11 10:39:29;;;;;;;;;;;8.00;30.00;;;;;;5065458;28;20450;-69
2022/03/11 10:41:56;;;;;;;;;;;8.00;30.50;;;;;;5065152;28;19942;-69
2022/03/11 10:44:26;;;;;;;;;;;8.20;30.20;;;;;;5065113;28;19980;-68
2022/03/11 10:46:55;;;;;;;;;;;8.30;29.80;;;;;;5065104;28;19908;-69
2022/03/11 10:49:39;;;;;;;;;;;8.50;30.10;;;;;;5065385;28;19980;-69
2022/03/11 10:52:05;;;;;;;;;;;8.70;29.80;;;;;;5030561;28;20203;-69
2022/03/11 10:54:31;;;;;;;;;;;9.00;29.90;;;;;;5064475;28;19995;-69
2022/03/11 10:57:09;;;;;;;;;;;9.10;29.70;;;;;;5047229;28;19913;-69
2022/03/11 10:59:35;;;;;;;;;;;9.20;28.90;;;;;;5064911;28;19923;-69
2022/03/11 11:02:01;;;;;;;;;;;9.20;29.30;;;;;;5064605;28;19940;-69
2022/03/11 11:04:27;;;;;;;;;;;9.30;29.10;;;;;;5064801;28;20199;-69
2022/03/11 11:06:52;;;;;;;;;;;9.40;28.90;;;;;;5064672;28;19916;-69
2022/03/11 11:09:18;;;;;;;;;;;9.50;28.30;;;;;;5064653;28;19915;-69
2022/03/11 11:11:44;;;;;;;;;;;9.60;28.10;;;;;;5046727;28;19909;-69
2022/03/11 11:14:10;;;;;;;;;;;9.90;28.50;;;;;;5064787;28;19962;-69
2022/03/11 11:16:46;;;;;;;;;;;10.30;27.80;;;;;;5046618;28;19979;-69
2022/03/11 11:19:13;;;;;;;;;;;10.60;28.00;;;;;;5065291;28;19908;-69
2022/03/11 11:21:44;;;;;;;;;;;10.80;27.30;;;;;;5046487;28;19908;-69
2022/03/11 11:24:20;;;;;;;;;;;10.90;27.20;;;;;;5064170;28;19916;-68
2022/03/11 11:26:51;;;;;;;;;;;11.00;27.00;;;;;;5064313;28;19909;-68
2022/03/11 11:29:22;;;;;;;;;;;11.10;26.40;;;;;;5064410;28;20092;-69
2022/03/11 11:31:48;;;;;;;;;;;11.40;26.90;;;;;;5046208;28;19946;-69
2022/03/11 11:34:31;;;;;;;;;;;11.90;26.50;;;;;;5046539;28;19924;-69
2022/03/11 11:36:57;;;;;;;;;;;12.40;26.00;;;;;;5064036;28;20011;-69
2022/03/11 11:39:27;;;;;;;;;;;13.60;25.60;;;;;;5064111;28;19912;-69
2022/03/11 11:42:00;;;;;;;;;;;14.80;24.30;;;;;;5046063;28;19917;-69
2022/03/11 11:44:42;;;;;;;;;;;16.10;23.40;;;;;;5063893;28;19917;-69
2022/03/11 11:47:11;;;;;;;;;;;17.50;22.50;;;;;;5064163;28;19908;-69
2022/03/11 11:49:45;;;;;;;;;;;18.80;22.10;;;;;;5064223;28;19931;-69
2022/03/11 11:52:12;;;;;;;;;;;20.00;20.90;;;;;;5046749;28;19917;-68
2022/03/11 11:54:39;;;;;;;;;;;20.60;20.80;;;;;;5045320;28;19909;-67
2022/03/11 11:57:06;;;;;;;;;;;21.60;19.90;;;;;;5063945;28;19966;-67
2022/03/11 11:59:35;;;;;;;;;;;22.00;19.80;;;;;;5063952;28;19909;-68
2022/03/11 12:02:04;;;;;;;;;;;23.30;18.80;;;;;;5063583;28;19963;-67
2022/03/11 12:04:35;;;;;;;;;;;23.90;18.70;;;;;;5063792;28;19915;-68
2022/03/11 12:07:02;;;;;;;;;;;24.10;18.70;;;;;;5046531;28;19921;-67
2022/03/11 12:09:45;;;;;;;;;;;24.10;18.90;;;;;;5063342;28;20242;-67
2022/03/11 12:12:29;;;;;;;;;;;24.30;18.50;;;;;;5063494;28;19917;-66
2022/03/11 12:15:01;;;;;;;;;;;24.10;18.10;;;;;;5063184;28;19961;-66
2022/03/11 12:17:44;;;;;;;;;;;23.80;18.40;;;;;;5063405;28;19912;-67
2022/03/11 12:20:34;;;;;;;;;;;23.90;18.70;;;;;;5063362;28;19956;-69
2022/03/11 12:23:00;;;;;;;;;;;25.10;18.30;;;;;;5063495;28;19952;-68
2022/03/11 12:25:36;;;;;;;;;;;26.30;18.20;;;;;;5063236;28;19908;-68
2022/03/11 12:28:18;;;;;;;;;;;28.00;17.60;;;;;;5063151;28;20201;-68
2022/03/11 12:30:47;;;;;;;;;;;28.40;17.30;;;;;;5044246;28;19980;-67
2022/03/11 12:33:16;;;;;;;;;;;28.40;17.00;;;;;;5063322;28;19915;-68
2022/03/11 12:35:42;;;;;;;;;;;28.60;17.70;;;;;;5062485;28;20303;-68
2022/03/11 12:38:21;;;;;;;;;;;29.80;17.00;;;;;;5062992;28;20135;-68
2022/03/11 12:40:47;;;;;;;;;;;29.40;16.80;;;;;;5062715;28;19908;-68
2022/03/11 12:43:13;;;;;;;;;;;29.30;16.70;;;;;;5062933;28;19909;-68
2022/03/11 12:45:50;;;;;;;;;;;29.70;16.50;;;;;;5062807;28;19990;-68
2022/03/11 12:48:24;;;;;;;;;;;30.60;16.60;;;;;;5063054;28;19923;-68
2022/03/11 12:50:49;;;;;;;;;;;30.70;16.60;;;;;;5045902;28;19951;-67
2022/03/11 12:53:16;;;;;;;;;;;29.20;16.70;;;;;;5062737;28;19989;-68
2022/03/11 12:55:44;;;;;;;;;;;29.90;16.80;;;;;;5062000;28;19913;-68
2022/03/11 12:58:25;;;;;;;;;;;30.80;16.50;;;;;;5045058;28;19908;-67
2022/03/11 13:00:52;;;;;;;;;;;30.90;16.60;;;;;;5062270;28;19931;-67
2022/03/11 13:03:22;;;;;;;;;;;31.20;17.10;;;;;;5063281;28;19909;-67
2022/03/11 13:05:50;;;;;;;;;;;31.00;16.30;;;;;;5028853;28;20061;-68
2022/03/11 13:08:17;;;;;;;;;;;29.80;16.60;;;;;;5062778;28;19979;-67
2022/03/11 13:10:47;;;;;;;;;;;30.80;16.60;;;;;;5062384;28;20257;-68
2022/03/11 13:13:13;;;;;;;;;;;31.10;16.40;;;;;;5054232;28;19940;-70
2022/03/11 13:15:40;;;;;;;;;;;31.30;16.60;;;;;;5042987;28;20143;-71
2022/03/11 13:18:11;;;;;;;;;;;31.00;16.50;;;;;;5024757;28;19970;-71
2022/03/11 13:21:09;;;;;;;;;;;30.90;16.50;;;;;;5042105;28;20090;-71
2022/03/11 13:23:45;;;;;;;;;;;30.50;16.40;;;;;;5030840;28;19921;-71
2022/03/11 13:26:21;;;;;;;;;;;29.70;16.60;;;;;;5053127;28;19917;-71
2022/03/11 13:28:56;;;;;;;;;;;28.60;17.00;;;;;;5062526;28;20093;-71
2022/03/11 13:31:32;;;;;;;;;;;28.30;17.20;;;;;;5044045;28;20116;-70
2022/03/11 13:33:59;;;;;;;;;;;28.50;17.10;;;;;;5062539;28;19913;-71
2022/03/11 13:36:32;;;;;;;;;;;27.80;17.00;;;;;;5062625;28;19917;-71
2022/03/11 13:39:08;;;;;;;;;;;27.50;17.20;;;;;;5062697;28;19912;-71
2022/03/11 13:41:46;;;;;;;;;;;28.20;17.10;;;;;;5061476;28;20080;-72
2022/03/11 13:44:26;;;;;;;;;;;28.70;17.10;;;;;;5043168;28;20207;-65
2022/03/11 13:46:55;;;;;;;;;;;29.40;16.90;;;;;;5062183;28;20124;-70
2022/03/11 13:49:21;;;;;;;;;;;29.60;17.10;;;;;;5065430;28;20138;-67
2022/03/11 13:51:50;;;;;;;;;;;29.50;16.90;;;;;;5065122;28;19962;-72
2022/03/11 13:54:47;;;;;;;;;;;29.40;17.20;;;;;;5065254;28;20210;-68
2022/03/11 13:57:19;;;;;;;;;;;30.50;16.90;;;;;;5065600;28;19931;-68
2022/03/11 13:59:49;;;;;;;;;;;31.30;16.60;;;;;;5067677;28;19909;-66
2022/03/11 14:02:16;;;;;;;;;;;31.80;16.50;;;;;;5068900;28;19975;-67
2022/03/11 14:04:42;;;;;;;;;;;30.40;16.70;;;;;;5067853;28;20045;-68
2022/03/11 14:07:08;;;;;;;;;;;29.60;16.90;;;;;;5066033;28;19998;-67
2022/03/11 14:09:34;;;;;;;;;;;28.10;16.90;;;;;;5064569;28;19913;-67
2022/03/11 14:12:00;;;;;;;;;;;27.10;17.40;;;;;;5063639;28;19917;-67
2022/03/11 14:14:30;;;;;;;;;;;27.40;17.70;;;;;;5064322;28;19924;-67
2022/03/11 14:16:59;;;;;;;;;;;28.70;17.20;;;;;;5064365;28;20019;-67
2022/03/11 14:19:25;;;;;;;;;;;29.30;17.50;;;;;;5064496;28;19952;-67
2022/03/11 14:21:51;;;;;;;;;;;29.00;17.10;;;;;;5064095;28;19916;-67
2022/03/11 14:24:17;;;;;;;;;;;27.90;17.20;;;;;;5064474;28;19931;-67
2022/03/11 14:26:43;;;;;;;;;;;26.30;17.40;;;;;;5064094;28;19916;-69